Lake Mills, WI (53551)

2:30 AM CST on February 07, 2016 (GMT -0600)
Cambridge | | Change Station
CLOSE
Current Station
Personal Weather Station
Location: Cambridge, WI
Elevation: 883 ft
Nearby Weather Stations

Elev 883 ft 43.00 °N, 89.01 °W | Updated 13 seconds ago

Overcast
Overcast
32.7 °F
Feels Like 24 °F
N
10.5
Wind Variable Wind from SSE

Today
High -- | Low -- °F
--% Chance of Precip.
Yesterday
High -- | Low -- °F
Precip. -- in
Pressure 29.88 in
Visibility 10.0 miles
Clouds Scattered Clouds 7000 ft
Overcast 9500 ft
Windchill 24 °F
Dew Point 28 °F
Humidity 82%
Rainfall Not available.
Snow Depth Not available.
7:04 AM 5:15 PM
Waning Crescent, 2% visible
METAR KRYV 070815Z AUTO 19008KT 10SM SCT070 OVC095 01/00 A2988 RMK AO2 T00100001
Pressure 29.88 in
Visibility 10.0 miles
Clouds Scattered Clouds 7000 ft
Overcast 9500 ft
Windchill 24 °F
Dew Point 28 °F
Humidity 82%
Rainfall Not available.
Snow Depth Not available.
7:04 AM 5:15 PM
Waning Crescent, 2% visible
METAR KRYV 070815Z AUTO 19008KT 10SM SCT070 OVC095 01/00 A2988 RMK AO2 T00100001

10-Day Weather Forecast

Almanac

Astronomy

Feb. 07, 2016 Rise Set
Actual Time
Civil Twilight
Nautical Twilight
Astronomical Twilight
Moon
Length of Visible Light
Length of Day
Tomorrow will be .
, % of the Moon is Illuminated

Today's Extremes

State Highs State Lows

Community

WunderPhotos

Upload Photos

1,891,171 photos uploaded!

WunderBlog® & News

Nearby

Air Quality

  Air Quality AQ Index Pollutant
Not available.

Snow Depth

Station Depth Elevation

Earthquake Activity

City Distance Mag. Time & Date
Minimum magnitude displayed is 2.5.

Coastal Water Temperatures

Place Temperature

Stations

Nearby Weather Stations

Station Location Temp. Windchill Dew Point Humidity Wind Precip. Elev Updated Type
                   

Watches & Warnings

There are currently no watches in effect.